createdAt,value
2023-08-07T00:02:21.240Z,79.72
2023-08-07T00:04:47.851Z,79.09
2023-08-07T00:07:14.363Z,79.09
2023-08-07T00:09:43.840Z,79.30
2023-08-07T00:12:10.664Z,79.94
2023-08-07T00:14:37.228Z,80.43
2023-08-07T00:17:03.956Z,80.81
2023-08-07T00:19:30.470Z,80.90
2023-08-07T00:21:57.225Z,80.30
2023-08-07T00:24:24.057Z,79.77
2023-08-07T00:26:50.614Z,79.21
2023-08-07T00:29:17.229Z,79.60
2023-08-07T00:31:43.758Z,79.02
2023-08-07T00:34:10.881Z,79.00
2023-08-07T00:36:37.459Z,78.10
2023-08-07T00:39:06.990Z,78.05
2023-08-07T00:41:33.561Z,78.07
2023-08-07T00:44:00.122Z,78.32
2023-08-07T00:46:27.045Z,78.46
2023-08-07T00:48:54.095Z,77.97
2023-08-07T00:51:21.514Z,77.99
2023-08-07T00:53:48.299Z,77.97
2023-08-07T00:56:15.129Z,77.91
2023-08-07T00:58:41.948Z,77.98
2023-08-07T01:01:08.774Z,78.27
2023-08-07T01:03:35.331Z,79.14
2023-08-07T01:06:02.536Z,80.39
2023-08-07T01:08:29.559Z,81.60
2023-08-07T01:11:21.927Z,82.43
2023-08-07T01:14:11.304Z,83.12
2023-08-07T01:16:42.505Z,83.22
2023-08-07T01:19:12.759Z,83.79
2023-08-07T01:21:39.297Z,84.03
2023-08-07T01:24:06.141Z,83.74
2023-08-07T01:26:35.826Z,83.84
2023-08-07T01:29:07.696Z,84.03
2023-08-07T01:31:35.038Z,84.38
2023-08-07T01:34:05.970Z,86.12
2023-08-07T01:36:33.538Z,85.72
2023-08-07T01:39:02.539Z,85.63
2023-08-07T01:41:29.241Z,86.51
2023-08-07T01:43:58.753Z,86.43
2023-08-07T01:46:28.219Z,86.77
2023-08-07T01:48:54.963Z,86.76
2023-08-07T01:51:21.509Z,86.83
2023-08-07T01:53:48.973Z,86.93
2023-08-07T01:56:15.488Z,86.71
2023-08-07T01:58:42.058Z,86.72
2023-08-07T02:01:08.594Z,86.66
2023-08-07T02:03:35.206Z,87.46
2023-08-07T02:06:03.145Z,87.32
2023-08-07T02:08:29.712Z,87.22
2023-08-07T02:10:56.307Z,86.41
2023-08-07T02:13:22.968Z,86.55
2023-08-07T02:15:49.515Z,86.95
2023-08-07T02:18:16.048Z,87.38
2023-08-07T02:20:42.594Z,87.15
2023-08-07T02:23:11.770Z,87.18
2023-08-07T02:25:40.416Z,87.47
2023-08-07T02:28:07.022Z,87.59
2023-08-07T02:30:33.570Z,87.57
2023-08-07T02:33:00.153Z,87.24
2023-08-07T02:35:26.756Z,86.60
2023-08-07T02:37:53.609Z,85.72
2023-08-07T02:40:20.312Z,85.38
2023-08-07T02:42:47.000Z,85.82
2023-08-07T02:45:13.735Z,85.60
2023-08-07T02:47:40.456Z,85.98
2023-08-07T02:50:07.217Z,86.02
2023-08-07T02:52:33.819Z,86.29
2023-08-07T02:55:00.342Z,86.96
2023-08-07T02:57:26.994Z,86.91
2023-08-07T02:59:53.565Z,87.02
2023-08-07T03:02:20.215Z,87.52
2023-08-07T03:04:46.966Z,87.10
2023-08-07T03:07:15.973Z,86.37
2023-08-07T03:09:42.631Z,86.24
2023-08-07T03:12:09.314Z,86.13
2023-08-07T03:14:35.966Z,85.75
2023-08-07T03:17:02.644Z,85.60
2023-08-07T03:19:29.251Z,85.70
2023-08-07T03:21:57.600Z,85.84
2023-08-07T03:24:24.868Z,86.06
2023-08-07T03:26:52.877Z,86.02
2023-08-07T03:29:19.580Z,86.21
2023-08-07T03:31:46.148Z,86.48
2023-08-07T03:34:12.797Z,87.47
2023-08-07T03:36:40.537Z,87.02
2023-08-07T03:39:07.162Z,86.82
2023-08-07T03:41:33.788Z,86.27
2023-08-07T03:44:00.316Z,85.89
2023-08-07T03:46:31.216Z,85.65
2023-08-07T03:48:59.805Z,85.64
2023-08-07T03:51:26.418Z,85.36
2023-08-07T03:53:53.861Z,85.18
2023-08-07T03:56:20.461Z,84.82
2023-08-07T03:58:49.140Z,85.19
2023-08-07T04:01:15.743Z,84.14
2023-08-07T04:03:42.503Z,83.89
2023-08-07T04:06:09.197Z,83.76
2023-08-07T04:08:35.736Z,83.49
2023-08-07T04:11:03.498Z,82.99
2023-08-07T04:13:30.560Z,82.55
2023-08-07T04:15:57.386Z,82.75
2023-08-07T04:18:26.373Z,82.77
2023-08-07T04:20:53.667Z,82.47
2023-08-07T04:23:20.548Z,82.04
2023-08-07T04:25:50.427Z,81.81
2023-08-07T04:28:17.028Z,81.42
2023-08-07T04:30:44.482Z,80.84
2023-08-07T04:33:11.534Z,80.97
2023-08-07T04:35:38.174Z,80.82
2023-08-07T04:38:04.693Z,81.08
2023-08-07T04:40:31.272Z,80.65
2023-08-07T04:42:57.865Z,80.28
2023-08-07T04:45:24.519Z,80.31
2023-08-07T04:47:54.213Z,79.82
2023-08-07T04:50:20.906Z,79.24
2023-08-07T04:52:47.700Z,79.16
2023-08-07T04:55:14.193Z,78.04
2023-08-07T04:57:40.799Z,77.87
2023-08-07T05:00:07.791Z,78.06
2023-08-07T05:02:36.224Z,77.94
2023-08-07T05:05:02.881Z,77.10
2023-08-07T05:07:29.401Z,77.08
2023-08-07T05:09:55.875Z,76.75
2023-08-07T05:12:22.451Z,76.26
2023-08-07T05:14:49.134Z,75.88
2023-08-07T05:17:15.858Z,75.49
2023-08-07T05:19:42.420Z,74.97
2023-08-07T05:22:08.962Z,74.71
2023-08-07T05:24:40.369Z,74.61
2023-08-07T05:27:10.369Z,74.68
2023-08-07T05:29:45.170Z,74.84
2023-08-07T05:32:12.577Z,74.80
2023-08-07T05:34:39.438Z,75.16
2023-08-07T05:37:06.442Z,75.64
2023-08-07T05:39:33.701Z,75.43
2023-08-07T05:44:41.375Z,73.92
2023-08-07T05:47:08.220Z,73.41
2023-08-07T05:49:37.610Z,72.28
2023-08-07T05:52:04.350Z,72.01
2023-08-07T05:54:31.116Z,71.84
2023-08-07T05:56:57.666Z,72.08
2023-08-07T05:59:24.782Z,71.87
2023-08-07T06:01:52.739Z,70.41
2023-08-07T06:04:19.576Z,70.33
2023-08-07T06:06:51.798Z,71.25
2023-08-07T06:09:18.686Z,70.58
2023-08-07T06:11:45.713Z,70.43
2023-08-07T06:14:12.201Z,69.96
2023-08-07T06:16:38.871Z,69.63
2023-08-07T06:19:16.970Z,69.51
2023-08-07T06:21:52.205Z,69.19
2023-08-07T06:24:18.699Z,69.58
2023-08-07T06:26:45.289Z,69.01
2023-08-07T06:29:11.983Z,69.29
2023-08-07T06:31:38.835Z,69.68
2023-08-07T06:34:05.466Z,69.65
2023-08-07T06:36:32.192Z,69.89
2023-08-07T06:39:01.073Z,70.04
2023-08-07T06:41:27.547Z,70.05
2023-08-07T06:43:54.139Z,70.21
2023-08-07T06:46:25.475Z,69.14
2023-08-07T06:49:06.900Z,67.18
2023-08-07T06:51:37.027Z,67.76
2023-08-07T06:54:06.909Z,66.94
2023-08-07T06:56:36.908Z,67.21
2023-08-07T06:59:03.468Z,67.56
2023-08-07T07:01:32.539Z,66.53
2023-08-07T07:04:07.515Z,63.92
2023-08-07T07:06:43.100Z,63.38
2023-08-07T07:09:17.361Z,63.52
2023-08-07T07:11:45.049Z,63.20
2023-08-07T07:16:58.906Z,63.54
2023-08-07T07:19:25.521Z,63.53
2023-08-07T07:21:52.063Z,63.16
2023-08-07T07:24:19.914Z,62.68
2023-08-07T07:26:46.523Z,62.53
2023-08-07T07:29:13.148Z,62.55
2023-08-07T07:31:39.697Z,61.58
2023-08-07T07:34:12.649Z,60.72
2023-08-07T07:36:39.182Z,61.16
2023-08-07T07:39:05.692Z,61.42
2023-08-07T07:41:32.162Z,59.39
2023-08-07T07:43:58.886Z,59.59
2023-08-07T07:46:25.574Z,58.86
2023-08-07T07:48:52.203Z,58.42
2023-08-07T07:51:19.100Z,58.78
2023-08-07T07:56:20.064Z,59.54
2023-08-07T07:58:46.935Z,59.36
2023-08-07T08:01:13.700Z,59.25
2023-08-07T08:03:40.433Z,60.21
2023-08-07T08:06:07.056Z,60.37
2023-08-07T08:08:34.177Z,60.36
2023-08-07T08:11:03.966Z,60.21
2023-08-07T08:13:32.415Z,58.17
2023-08-07T08:15:59.087Z,57.09
2023-08-07T08:18:25.744Z,57.16
2023-08-07T08:20:52.292Z,56.91
2023-08-07T08:23:18.941Z,56.51
2023-08-07T08:25:47.530Z,56.66
2023-08-07T08:28:14.053Z,56.56
2023-08-07T08:30:40.709Z,55.12
2023-08-07T08:33:10.020Z,55.08
2023-08-07T08:35:36.655Z,55.70
2023-08-07T08:38:04.619Z,55.99
2023-08-07T08:40:35.307Z,55.46
2023-08-07T08:43:02.016Z,56.42
2023-08-07T08:45:31.201Z,56.25
2023-08-07T08:48:02.341Z,56.95
2023-08-07T08:50:29.322Z,56.14
2023-08-07T08:52:56.990Z,56.87
2023-08-07T08:55:24.185Z,56.60
2023-08-07T08:57:54.723Z,55.78
2023-08-07T09:00:22.800Z,56.45
2023-08-07T09:02:49.980Z,55.44
2023-08-07T09:05:17.511Z,53.86
2023-08-07T09:07:44.838Z,54.00
2023-08-07T09:10:14.819Z,53.09
2023-08-07T09:12:42.837Z,52.46
2023-08-07T09:15:13.605Z,52.13
2023-08-07T09:17:41.526Z,51.37
2023-08-07T09:20:12.269Z,51.12
2023-08-07T09:22:45.732Z,51.71
2023-08-07T09:25:12.330Z,50.56
2023-08-07T09:27:39.789Z,50.49
2023-08-07T09:30:10.883Z,50.45
2023-08-07T09:32:37.887Z,50.49
2023-08-07T09:35:07.927Z,50.79
2023-08-07T09:37:43.017Z,50.82
2023-08-07T09:40:12.293Z,50.00
2023-08-07T09:42:42.733Z,49.94
2023-08-07T09:45:28.213Z,50.04
2023-08-07T09:47:59.011Z,50.36
2023-08-07T09:50:26.126Z,50.87
2023-08-07T09:52:57.888Z,50.64
2023-08-07T09:55:30.750Z,50.85
2023-08-07T09:57:57.368Z,50.79
2023-08-07T10:00:27.298Z,50.85
2023-08-07T10:02:58.682Z,50.04
2023-08-07T10:05:33.337Z,49.33
2023-08-07T10:08:00.409Z,50.02
2023-08-07T10:10:27.970Z,50.07
2023-08-07T10:12:59.485Z,49.59
2023-08-07T10:15:28.349Z,49.79
2023-08-07T10:17:55.422Z,49.75
2023-08-07T10:20:24.196Z,49.02
2023-08-07T10:22:54.132Z,48.06
2023-08-07T10:25:32.398Z,47.54
2023-08-07T10:28:12.656Z,48.18
2023-08-07T10:30:42.803Z,47.70
2023-08-07T10:33:13.559Z,47.89
2023-08-07T10:35:53.953Z,48.68
2023-08-07T10:38:21.674Z,47.79
2023-08-07T10:40:57.343Z,48.15
2023-08-07T10:43:25.200Z,47.51
2023-08-07T10:45:52.165Z,45.75
2023-08-07T10:48:19.454Z,46.27
2023-08-07T10:51:04.386Z,46.21
2023-08-07T10:53:39.889Z,46.19
2023-08-07T10:56:09.511Z,46.08
2023-08-07T10:58:37.446Z,45.99
2023-08-07T11:01:22.471Z,46.29
2023-08-07T11:03:53.238Z,45.15
2023-08-07T11:06:22.896Z,45.14
2023-08-07T11:08:49.981Z,44.53
2023-08-07T11:11:19.130Z,44.08
2023-08-07T11:13:46.072Z,44.55
2023-08-07T11:16:19.958Z,45.19
2023-08-07T11:18:50.598Z,45.57
2023-08-07T11:21:29.106Z,44.69
2023-08-07T11:23:58.281Z,44.91
2023-08-07T11:26:32.305Z,45.59
2023-08-07T11:29:01.621Z,45.13
2023-08-07T11:31:40.929Z,45.09
2023-08-07T11:34:10.279Z,44.42
2023-08-07T11:36:42.788Z,44.92
2023-08-07T11:39:09.687Z,45.83
2023-08-07T11:41:41.410Z,44.80
2023-08-07T11:44:11.293Z,44.32
2023-08-07T11:46:37.891Z,44.39
2023-08-07T11:49:08.873Z,44.02
2023-08-07T11:51:37.305Z,43.83
2023-08-07T11:54:04.098Z,43.74
2023-08-07T11:56:31.232Z,43.56
2023-08-07T11:58:58.619Z,42.99
2023-08-07T12:01:27.496Z,42.70
2023-08-07T12:03:58.708Z,43.09
2023-08-07T12:06:33.334Z,42.73
2023-08-07T12:09:07.939Z,43.20
2023-08-07T12:11:39.197Z,43.22
2023-08-07T12:14:05.861Z,42.91
2023-08-07T12:16:38.357Z,43.25
2023-08-07T12:19:05.410Z,43.46
2023-08-07T12:21:34.626Z,44.16
2023-08-07T12:24:01.593Z,45.34
2023-08-07T12:26:28.196Z,42.93
2023-08-07T12:28:55.551Z,42.58
2023-08-07T12:31:22.242Z,42.81
2023-08-07T12:33:49.067Z,42.33
2023-08-07T12:38:45.528Z,41.00
2023-08-07T12:43:41.633Z,40.70
2023-08-07T12:48:40.806Z,39.37
2023-08-07T12:51:07.338Z,38.45
2023-08-07T12:53:34.058Z,37.76
2023-08-07T12:56:00.847Z,37.68
2023-08-07T12:58:30.825Z,37.19
2023-08-07T13:00:57.762Z,36.42
2023-08-07T13:03:24.688Z,36.61
2023-08-07T13:05:51.213Z,36.84
2023-08-07T13:08:22.448Z,36.30
2023-08-07T13:10:50.631Z,36.01
2023-08-07T13:16:26.960Z,36.03
2023-08-07T13:22:27.418Z,37.02
2023-08-07T13:24:54.109Z,35.62
2023-08-07T13:27:20.735Z,34.53
2023-08-07T13:29:48.117Z,34.90
2023-08-07T13:32:14.829Z,36.39
2023-08-07T13:34:41.530Z,37.29
2023-08-07T13:37:08.479Z,37.22
2023-08-07T13:39:39.422Z,37.50
2023-08-07T13:42:06.211Z,37.91
2023-08-07T13:44:34.387Z,38.45
2023-08-07T13:47:00.927Z,37.93
2023-08-07T13:49:27.552Z,38.30
2023-08-07T13:51:54.093Z,38.48
2023-08-07T13:54:21.039Z,37.63
2023-08-07T13:56:47.642Z,38.08
2023-08-07T13:59:14.262Z,38.41
2023-08-07T14:01:40.833Z,37.81
2023-08-07T14:04:09.785Z,36.33
2023-08-07T14:06:36.343Z,35.46
2023-08-07T14:09:03.195Z,36.64
2023-08-07T14:11:32.216Z,37.78
2023-08-07T14:13:58.946Z,37.59
2023-08-07T14:16:26.680Z,37.56
2023-08-07T14:18:53.365Z,37.15
2023-08-07T14:21:20.299Z,37.74
2023-08-07T14:23:49.337Z,38.26
2023-08-07T14:26:16.116Z,37.63
2023-08-07T14:28:47.294Z,38.21
2023-08-07T14:31:18.267Z,38.01
2023-08-07T14:33:47.907Z,38.00
2023-08-07T14:36:16.086Z,37.62
2023-08-07T14:38:47.039Z,37.72
2023-08-07T14:41:16.911Z,36.64
2023-08-07T14:43:43.625Z,34.97
2023-08-07T14:46:10.264Z,33.75
2023-08-07T14:48:36.968Z,34.51
2023-08-07T14:51:03.626Z,34.88
2023-08-07T14:53:30.237Z,36.20
2023-08-07T14:55:57.997Z,36.55
2023-08-07T14:58:24.777Z,36.31
2023-08-07T15:00:55.005Z,35.63
2023-08-07T15:03:21.748Z,35.64
2023-08-07T15:05:48.323Z,36.42
2023-08-07T15:08:14.937Z,33.97
2023-08-07T15:10:43.628Z,33.26
2023-08-07T15:13:12.761Z,30.29
2023-08-07T15:15:40.780Z,28.74
2023-08-07T15:18:07.586Z,28.18
2023-08-07T15:20:37.129Z,27.52
2023-08-07T15:23:04.543Z,27.30
2023-08-07T15:25:36.240Z,27.75
2023-08-07T15:28:09.352Z,28.35
2023-08-07T15:30:39.138Z,28.78
2023-08-07T15:33:12.871Z,33.06
2023-08-07T15:35:39.435Z,34.27
2023-08-07T15:38:06.274Z,34.66
2023-08-07T15:40:33.241Z,30.74
2023-08-07T15:42:59.927Z,34.09
2023-08-07T15:45:26.625Z,36.26
2023-08-07T15:47:53.792Z,36.43
2023-08-07T15:50:23.616Z,37.10
2023-08-07T15:53:02.334Z,37.61
2023-08-07T15:55:30.696Z,38.10
2023-08-07T15:57:58.553Z,37.75
2023-08-07T16:00:25.181Z,37.72
2023-08-07T16:02:51.799Z,37.62
2023-08-07T16:05:21.799Z,33.49
2023-08-07T16:07:51.801Z,28.25
2023-08-07T16:10:19.338Z,25.47
2023-08-07T16:12:46.065Z,27.72
2023-08-07T16:15:12.663Z,26.00
2023-08-07T16:17:41.997Z,24.20
2023-08-07T16:20:08.970Z,24.25
2023-08-07T16:22:38.180Z,25.09
2023-08-07T16:25:08.237Z,25.02
2023-08-07T16:27:35.970Z,24.94
2023-08-07T16:30:05.105Z,24.64
2023-08-07T16:32:38.298Z,25.78
2023-08-07T16:35:05.604Z,30.75
2023-08-07T16:37:36.079Z,34.30
2023-08-07T16:40:03.380Z,34.15
2023-08-07T16:42:32.787Z,33.39
2023-08-07T16:44:59.371Z,30.74
2023-08-07T16:47:26.539Z,34.59
2023-08-07T16:49:55.150Z,33.75
2023-08-07T16:52:22.247Z,37.42
2023-08-07T16:54:50.744Z,37.96
2023-08-07T16:57:19.286Z,38.85
2023-08-07T16:59:54.726Z,39.58
2023-08-07T17:02:31.707Z,39.72
2023-08-07T17:04:58.302Z,40.72
2023-08-07T17:07:29.013Z,41.40
2023-08-07T17:09:55.786Z,42.04
2023-08-07T17:12:22.426Z,43.45
2023-08-07T17:14:50.477Z,43.99
2023-08-07T17:17:17.308Z,43.91
2023-08-07T17:19:43.776Z,44.15
2023-08-07T17:22:10.345Z,46.40
2023-08-07T17:24:36.996Z,48.38
2023-08-07T17:27:03.835Z,49.52
2023-08-07T17:29:30.645Z,49.28
2023-08-07T17:31:59.137Z,49.25
2023-08-07T17:34:25.983Z,51.17
2023-08-07T17:36:52.503Z,53.80
2023-08-07T17:39:19.986Z,53.39
2023-08-07T17:42:06.164Z,54.44
2023-08-07T17:44:32.795Z,54.28
2023-08-07T17:46:59.909Z,54.38
2023-08-07T17:49:26.719Z,54.26
2023-08-07T17:51:53.290Z,54.59
2023-08-07T17:54:19.852Z,56.08
2023-08-07T17:56:48.037Z,56.90
2023-08-07T17:59:14.597Z,56.58
2023-08-07T18:01:41.198Z,56.25
2023-08-07T18:04:07.870Z,56.79
2023-08-07T18:06:34.443Z,56.24
2023-08-07T18:09:01.645Z,57.24
2023-08-07T18:11:28.204Z,57.68
2023-08-07T18:13:55.193Z,58.85
2023-08-07T18:16:24.011Z,58.67
2023-08-07T18:18:52.740Z,58.60
2023-08-07T18:21:20.378Z,58.13
2023-08-07T18:23:46.898Z,58.07
2023-08-07T18:26:13.436Z,58.07
2023-08-07T18:28:40.404Z,57.92
2023-08-07T18:31:07.685Z,58.72
2023-08-07T18:33:34.750Z,58.73
2023-08-07T18:36:01.601Z,58.66
2023-08-07T18:38:28.509Z,59.23
2023-08-07T18:40:55.106Z,59.60
2023-08-07T18:43:21.691Z,59.78
2023-08-07T18:45:48.240Z,59.97
2023-08-07T18:48:18.614Z,60.06
2023-08-07T18:50:52.481Z,60.64
2023-08-07T18:53:19.081Z,60.86
2023-08-07T18:55:45.748Z,61.22
2023-08-07T18:58:12.545Z,61.15
2023-08-07T19:00:39.026Z,61.22
2023-08-07T19:03:05.934Z,61.48
2023-08-07T19:05:32.491Z,61.42
2023-08-07T19:07:59.035Z,61.30
2023-08-07T19:10:25.694Z,61.66
2023-08-07T19:12:52.799Z,61.82
2023-08-07T19:15:19.878Z,61.83
2023-08-07T19:17:59.992Z,62.33
2023-08-07T19:20:26.769Z,62.49
2023-08-07T19:22:56.019Z,62.73
2023-08-07T19:25:28.850Z,63.15
2023-08-07T19:27:58.311Z,63.70
2023-08-07T19:30:24.933Z,63.74
2023-08-07T19:32:51.739Z,64.00
2023-08-07T19:35:24.257Z,63.94
2023-08-07T19:37:50.843Z,64.15
2023-08-07T19:40:25.830Z,64.66
2023-08-07T19:42:52.606Z,64.75
2023-08-07T19:45:21.954Z,64.83
2023-08-07T19:47:49.001Z,64.75
2023-08-07T19:50:16.173Z,64.79
2023-08-07T19:52:43.547Z,64.89
2023-08-07T19:55:10.215Z,65.06
2023-08-07T19:57:37.529Z,65.42
2023-08-07T20:00:05.595Z,65.76
2023-08-07T20:02:32.231Z,66.26
2023-08-07T20:04:58.808Z,66.47
2023-08-07T20:07:25.383Z,66.42
2023-08-07T20:09:54.240Z,66.13
2023-08-07T20:12:23.258Z,66.39
2023-08-07T20:14:50.119Z,66.77
2023-08-07T20:17:17.339Z,66.61
2023-08-07T20:19:47.078Z,66.64
2023-08-07T20:22:15.302Z,66.50
2023-08-07T20:24:43.364Z,66.85
2023-08-07T20:27:09.956Z,66.97
2023-08-07T20:29:36.572Z,67.01
2023-08-07T20:32:03.361Z,67.17
2023-08-07T20:34:29.962Z,67.50
2023-08-07T20:36:59.076Z,67.37
2023-08-07T20:39:25.953Z,67.66
2023-08-07T20:42:00.640Z,67.95
2023-08-07T20:44:30.045Z,68.07
2023-08-07T20:46:59.647Z,67.83
2023-08-07T20:49:29.966Z,67.91
2023-08-07T20:51:57.117Z,68.49
2023-08-07T20:54:27.604Z,69.06
2023-08-07T20:56:57.810Z,69.23
2023-08-07T20:59:24.598Z,69.02
2023-08-07T21:01:54.071Z,68.93
2023-08-07T21:04:22.222Z,70.63
2023-08-07T21:06:51.848Z,69.33
2023-08-07T21:09:18.943Z,70.00
2023-08-07T21:11:45.522Z,70.87
2023-08-07T21:14:12.162Z,71.72
2023-08-07T21:16:38.908Z,70.48
2023-08-07T21:19:08.695Z,70.60
2023-08-07T21:21:38.261Z,71.09
2023-08-07T21:24:06.732Z,70.00
2023-08-07T21:26:37.657Z,70.54
2023-08-07T21:29:21.585Z,100.00
2023-08-07T21:31:51.230Z,71.39
2023-08-07T21:34:23.655Z,71.70
2023-08-07T21:36:55.120Z,71.67
2023-08-07T21:39:21.814Z,70.86
2023-08-07T21:41:48.488Z,70.85
2023-08-07T21:44:15.676Z,70.62
2023-08-07T21:46:47.783Z,71.79
2023-08-07T21:49:14.414Z,72.45
2023-08-07T21:51:41.050Z,71.86
2023-08-07T21:54:08.047Z,71.57
2023-08-07T21:56:34.608Z,71.64
2023-08-07T21:59:01.241Z,71.51
2023-08-07T22:01:28.024Z,72.09
2023-08-07T22:03:55.075Z,71.82
2023-08-07T22:06:21.591Z,71.77
2023-08-07T22:08:48.308Z,71.34
2023-08-07T22:11:17.829Z,71.05
2023-08-07T22:13:44.349Z,72.08
2023-08-07T22:16:10.932Z,71.92
2023-08-07T22:18:37.973Z,71.04
2023-08-07T22:21:04.593Z,71.04
2023-08-07T22:23:31.748Z,71.60
2023-08-07T22:25:58.568Z,72.17
2023-08-07T22:28:25.454Z,72.32
2023-08-07T22:30:52.437Z,73.26
2023-08-07T22:33:19.093Z,73.87
2023-08-07T22:35:45.803Z,72.58
2023-08-07T22:38:12.319Z,72.04
2023-08-07T22:40:39.294Z,71.75
2023-08-07T22:43:06.013Z,72.04
2023-08-07T22:45:32.883Z,72.81
2023-08-07T22:47:59.549Z,73.02
2023-08-07T22:50:26.222Z,73.79
2023-08-07T22:52:52.930Z,73.46
2023-08-07T22:55:19.573Z,73.48
2023-08-07T22:57:48.636Z,73.10
2023-08-07T23:00:17.686Z,73.28
2023-08-07T23:02:47.748Z,73.94
2023-08-07T23:05:14.543Z,73.83
2023-08-07T23:07:41.636Z,73.89
2023-08-07T23:10:08.331Z,73.98
2023-08-07T23:12:35.008Z,74.50
2023-08-07T23:15:01.551Z,74.95
2023-08-07T23:17:28.170Z,74.97
2023-08-07T23:19:54.740Z,74.87
2023-08-07T23:22:21.301Z,75.44
2023-08-07T23:24:54.795Z,75.63
2023-08-07T23:27:21.545Z,75.83
2023-08-07T23:29:48.162Z,75.63
2023-08-07T23:32:14.784Z,76.08
2023-08-07T23:34:41.318Z,76.42
2023-08-07T23:37:07.985Z,76.56
2023-08-07T23:39:34.534Z,76.92
2023-08-07T23:42:01.611Z,76.73
2023-08-07T23:44:28.887Z,76.75
2023-08-07T23:46:55.560Z,76.75
2023-08-07T23:49:22.772Z,76.49
2023-08-07T23:51:49.561Z,76.42
2023-08-07T23:54:16.123Z,75.93
2023-08-07T23:56:44.038Z,75.70
2023-08-07T23:59:12.295Z,75.68
